Gaston, Oregon
Current Conditions -  °F | °C
As of 3:53 PM on Thursday 18 Dec 2014 (Local Time) from KHIO Reporting Station
Light Rain Light Rain  
Wind Chill: 50°   Ceiling: 5500
Heat Index: 50°   Visibility: 9mi
Dew Point: 47°   Wind: 9mph
Humidity: 89%   Direction: 130°SE
Pressure: 29.83"   Gusts: NA
Location:  45.44°N, 123.14°W
Report Text: KHIO 182353Z 13008KT 9SM -RA SCT047 OVC055 10/08 A2983 RMK AO2 RAB25 SLP101 P0001 60002 T01000083 10106 20072 56017
Loading
Personal Weather Stations






























Interactive Weather Map New forecast layout! Learn more

10-Day Weather Forecast

Advertisements
Track Severe Weather on mobile